sensor_id;sensor_type;location;lat;lon;timestamp;temperature;humidity
4052;DHT22;2040;50.924;11.604;2023-07-29T00:01:41;19.00;99.90
4052;DHT22;2040;50.924;11.604;2023-07-29T00:04:08;19.00;99.90
4052;DHT22;2040;50.924;11.604;2023-07-29T00:06:35;19.00;99.90
4052;DHT22;2040;50.924;11.604;2023-07-29T00:09:01;18.90;99.90
4052;DHT22;2040;50.924;11.604;2023-07-29T00:11:27;18.80;99.90
4052;DHT22;2040;50.924;11.604;2023-07-29T00:13:52;18.80;99.90
4052;DHT22;2040;50.924;11.604;2023-07-29T00:16:18;18.80;99.90
4052;DHT22;2040;50.924;11.604;2023-07-29T00:18:47;18.80;99.90
4052;DHT22;2040;50.924;11.604;2023-07-29T00:21:13;18.80;99.90
4052;DHT22;2040;50.924;11.604;2023-07-29T00:23:39;18.80;99.90
4052;DHT22;2040;50.924;11.604;2023-07-29T00:26:04;18.70;99.90
4052;DHT22;2040;50.924;11.604;2023-07-29T00:28:30;18.80;99.90
4052;DHT22;2040;50.924;11.604;2023-07-29T00:30:55;18.80;99.90
4052;DHT22;2040;50.924;11.604;2023-07-29T00:33:21;18.70;99.90
4052;DHT22;2040;50.924;11.604;2023-07-29T00:35:47;18.70;99.90
4052;DHT22;2040;50.924;11.604;2023-07-29T00:38:12;18.70;99.90
4052;DHT22;2040;50.924;11.604;2023-07-29T00:40:38;18.80;99.90
4052;DHT22;2040;50.924;11.604;2023-07-29T00:43:04;18.80;99.90
4052;DHT22;2040;50.924;11.604;2023-07-29T00:45:30;18.80;99.90
4052;DHT22;2040;50.924;11.604;2023-07-29T00:47:57;18.90;99.90
4052;DHT22;2040;50.924;11.604;2023-07-29T00:50:23;18.80;99.90
4052;DHT22;2040;50.924;11.604;2023-07-29T00:52:49;18.90;99.90
4052;DHT22;2040;50.924;11.604;2023-07-29T00:55:16;18.90;99.90
4052;DHT22;2040;50.924;11.604;2023-07-29T00:57:42;18.90;99.90
4052;DHT22;2040;50.924;11.604;2023-07-29T01:00:08;18.80;99.90
4052;DHT22;2040;50.924;11.604;2023-07-29T01:02:35;18.90;99.90
4052;DHT22;2040;50.924;11.604;2023-07-29T01:05:01;18.80;99.90
4052;DHT22;2040;50.924;11.604;2023-07-29T01:07:36;18.80;99.90
4052;DHT22;2040;50.924;11.604;2023-07-29T01:10:30;18.80;99.90
4052;DHT22;2040;50.924;11.604;2023-07-29T01:15:40;18.80;99.90
4052;DHT22;2040;50.924;11.604;2023-07-29T01:18:12;18.80;99.90
4052;DHT22;2040;50.924;11.604;2023-07-29T01:20:42;18.80;99.90
4052;DHT22;2040;50.924;11.604;2023-07-29T01:23:09;18.80;99.90
4052;DHT22;2040;50.924;11.604;2023-07-29T01:25:34;18.80;99.90
4052;DHT22;2040;50.924;11.604;2023-07-29T01:28:00;18.70;99.90
4052;DHT22;2040;50.924;11.604;2023-07-29T01:30:30;18.70;99.90
4052;DHT22;2040;50.924;11.604;2023-07-29T01:35:50;18.80;99.90
4052;DHT22;2040;50.924;11.604;2023-07-29T01:38:24;18.80;99.90
4052;DHT22;2040;50.924;11.604;2023-07-29T01:40:53;18.70;99.90
4052;DHT22;2040;50.924;11.604;2023-07-29T01:43:20;18.70;99.90
4052;DHT22;2040;50.924;11.604;2023-07-29T01:45:49;18.70;99.90
4052;DHT22;2040;50.924;11.604;2023-07-29T01:48:14;18.70;99.90
4052;DHT22;2040;50.924;11.604;2023-07-29T01:50:40;18.70;99.90
4052;DHT22;2040;50.924;11.604;2023-07-29T01:53:05;18.70;99.90
4052;DHT22;2040;50.924;11.604;2023-07-29T02:08:59;18.50;99.90
4052;DHT22;2040;50.924;11.604;2023-07-29T02:11:25;18.50;99.90
4052;DHT22;2040;50.924;11.604;2023-07-29T02:13:54;18.40;99.90
4052;DHT22;2040;50.924;11.604;2023-07-29T02:16:20;18.30;99.90
4052;DHT22;2040;50.924;11.604;2023-07-29T02:18:46;18.30;99.90
4052;DHT22;2040;50.924;11.604;2023-07-29T02:21:11;18.30;99.90
4052;DHT22;2040;50.924;11.604;2023-07-29T02:23:38;18.20;99.90
4052;DHT22;2040;50.924;11.604;2023-07-29T02:26:04;18.20;99.90
4052;DHT22;2040;50.924;11.604;2023-07-29T02:28:29;18.20;99.90
4052;DHT22;2040;50.924;11.604;2023-07-29T02:31:19;18.20;99.90
4052;DHT22;2040;50.924;11.604;2023-07-29T02:33:44;18.10;99.90
4052;DHT22;2040;50.924;11.604;2023-07-29T02:36:11;18.10;99.90
4052;DHT22;2040;50.924;11.604;2023-07-29T02:38:38;18.00;99.90
4052;DHT22;2040;50.924;11.604;2023-07-29T02:41:03;18.00;99.90
4052;DHT22;2040;50.924;11.604;2023-07-29T02:43:29;17.90;99.90
4052;DHT22;2040;50.924;11.604;2023-07-29T02:45:54;17.90;99.90
4052;DHT22;2040;50.924;11.604;2023-07-29T02:48:20;17.90;99.90
4052;DHT22;2040;50.924;11.604;2023-07-29T02:50:45;17.90;99.90
4052;DHT22;2040;50.924;11.604;2023-07-29T02:53:11;17.90;99.90
4052;DHT22;2040;50.924;11.604;2023-07-29T02:55:40;17.90;99.90
4052;DHT22;2040;50.924;11.604;2023-07-29T02:58:06;17.90;99.90
4052;DHT22;2040;50.924;11.604;2023-07-29T03:00:32;17.90;99.90
4052;DHT22;2040;50.924;11.604;2023-07-29T03:02:58;17.80;99.90
4052;DHT22;2040;50.924;11.604;2023-07-29T03:05:26;17.80;99.90
4052;DHT22;2040;50.924;11.604;2023-07-29T03:07:52;17.80;99.90
4052;DHT22;2040;50.924;11.604;2023-07-29T03:10:18;17.70;99.90
4052;DHT22;2040;50.924;11.604;2023-07-29T03:12:43;17.70;99.90
4052;DHT22;2040;50.924;11.604;2023-07-29T03:15:09;17.70;99.90
4052;DHT22;2040;50.924;11.604;2023-07-29T03:17:34;17.60;99.90
4052;DHT22;2040;50.924;11.604;2023-07-29T03:20:00;17.60;99.90
4052;DHT22;2040;50.924;11.604;2023-07-29T03:22:25;17.60;99.90
4052;DHT22;2040;50.924;11.604;2023-07-29T03:24:51;17.60;99.90
4052;DHT22;2040;50.924;11.604;2023-07-29T03:27:16;17.50;99.90
4052;DHT22;2040;50.924;11.604;2023-07-29T03:29:42;17.50;99.90
4052;DHT22;2040;50.924;11.604;2023-07-29T03:32:08;17.50;99.90
4052;DHT22;2040;50.924;11.604;2023-07-29T03:34:34;17.50;99.90
4052;DHT22;2040;50.924;11.604;2023-07-29T03:37:00;17.50;99.90
4052;DHT22;2040;50.924;11.604;2023-07-29T03:39:26;17.50;99.90
4052;DHT22;2040;50.924;11.604;2023-07-29T03:41:52;17.40;99.90
4052;DHT22;2040;50.924;11.604;2023-07-29T03:44:18;17.40;99.90
4052;DHT22;2040;50.924;11.604;2023-07-29T03:46:44;17.40;99.90
4052;DHT22;2040;50.924;11.604;2023-07-29T03:49:10;17.40;99.90
4052;DHT22;2040;50.924;11.604;2023-07-29T03:51:36;17.40;99.90
4052;DHT22;2040;50.924;11.604;2023-07-29T03:54:01;17.50;99.90
4052;DHT22;2040;50.924;11.604;2023-07-29T03:56:27;17.40;99.90
4052;DHT22;2040;50.924;11.604;2023-07-29T03:58:53;17.40;99.90
4052;DHT22;2040;50.924;11.604;2023-07-29T04:01:19;17.40;99.90
4052;DHT22;2040;50.924;11.604;2023-07-29T04:03:45;17.30;99.90
4052;DHT22;2040;50.924;11.604;2023-07-29T04:06:14;17.30;99.90
4052;DHT22;2040;50.924;11.604;2023-07-29T04:08:39;17.30;99.90
4052;DHT22;2040;50.924;11.604;2023-07-29T04:11:06;17.30;99.90
4052;DHT22;2040;50.924;11.604;2023-07-29T04:13:32;17.20;99.90
4052;DHT22;2040;50.924;11.604;2023-07-29T04:15:57;17.30;99.90
4052;DHT22;2040;50.924;11.604;2023-07-29T04:18:23;17.30;99.90
4052;DHT22;2040;50.924;11.604;2023-07-29T04:20:48;17.30;99.90
4052;DHT22;2040;50.924;11.604;2023-07-29T04:23:14;17.20;99.90
4052;DHT22;2040;50.924;11.604;2023-07-29T04:25:39;17.20;99.90
4052;DHT22;2040;50.924;11.604;2023-07-29T04:28:05;17.20;99.90
4052;DHT22;2040;50.924;11.604;2023-07-29T04:30:31;17.10;99.90
4052;DHT22;2040;50.924;11.604;2023-07-29T04:32:56;17.10;99.90
4052;DHT22;2040;50.924;11.604;2023-07-29T04:35:22;17.00;99.90
4052;DHT22;2040;50.924;11.604;2023-07-29T04:37:48;17.00;99.90
4052;DHT22;2040;50.924;11.604;2023-07-29T04:40:14;16.90;99.90
4052;DHT22;2040;50.924;11.604;2023-07-29T04:42:40;16.90;99.90
4052;DHT22;2040;50.924;11.604;2023-07-29T04:45:06;16.90;99.90
4052;DHT22;2040;50.924;11.604;2023-07-29T04:47:31;16.90;99.90
4052;DHT22;2040;50.924;11.604;2023-07-29T04:49:57;16.90;99.90
4052;DHT22;2040;50.924;11.604;2023-07-29T04:52:22;17.00;99.90
4052;DHT22;2040;50.924;11.604;2023-07-29T04:54:48;17.10;99.90
4052;DHT22;2040;50.924;11.604;2023-07-29T04:57:14;17.10;99.90
4052;DHT22;2040;50.924;11.604;2023-07-29T04:59:39;17.10;99.90
4052;DHT22;2040;50.924;11.604;2023-07-29T05:02:19;17.20;99.90
4052;DHT22;2040;50.924;11.604;2023-07-29T05:04:45;17.20;99.90
4052;DHT22;2040;50.924;11.604;2023-07-29T05:07:10;17.30;99.90
4052;DHT22;2040;50.924;11.604;2023-07-29T05:09:36;17.30;99.90
4052;DHT22;2040;50.924;11.604;2023-07-29T05:12:01;17.40;99.90
4052;DHT22;2040;50.924;11.604;2023-07-29T05:14:27;17.40;99.90
4052;DHT22;2040;50.924;11.604;2023-07-29T05:16:53;17.50;99.90
4052;DHT22;2040;50.924;11.604;2023-07-29T05:19:18;17.50;99.90
4052;DHT22;2040;50.924;11.604;2023-07-29T05:21:44;17.70;99.90
4052;DHT22;2040;50.924;11.604;2023-07-29T05:24:09;17.70;99.90
4052;DHT22;2040;50.924;11.604;2023-07-29T05:26:35;17.80;99.90
4052;DHT22;2040;50.924;11.604;2023-07-29T05:29:00;17.90;99.90
4052;DHT22;2040;50.924;11.604;2023-07-29T05:31:26;18.10;99.90
4052;DHT22;2040;50.924;11.604;2023-07-29T05:33:53;18.10;99.90
4052;DHT22;2040;50.924;11.604;2023-07-29T05:36:18;18.20;99.90
4052;DHT22;2040;50.924;11.604;2023-07-29T05:38:44;18.30;99.90
4052;DHT22;2040;50.924;11.604;2023-07-29T05:41:09;18.50;99.90
4052;DHT22;2040;50.924;11.604;2023-07-29T05:43:35;18.60;99.90
4052;DHT22;2040;50.924;11.604;2023-07-29T05:46:00;18.80;99.90
4052;DHT22;2040;50.924;11.604;2023-07-29T05:48:27;18.90;99.90
4052;DHT22;2040;50.924;11.604;2023-07-29T05:50:52;19.10;99.90
4052;DHT22;2040;50.924;11.604;2023-07-29T05:53:18;19.20;99.90
4052;DHT22;2040;50.924;11.604;2023-07-29T05:55:43;19.30;99.90
4052;DHT22;2040;50.924;11.604;2023-07-29T05:58:09;19.40;99.90
4052;DHT22;2040;50.924;11.604;2023-07-29T06:00:35;19.40;99.90
4052;DHT22;2040;50.924;11.604;2023-07-29T06:03:01;19.40;99.90
4052;DHT22;2040;50.924;11.604;2023-07-29T06:05:26;19.40;99.90
4052;DHT22;2040;50.924;11.604;2023-07-29T06:07:52;19.40;99.90
4052;DHT22;2040;50.924;11.604;2023-07-29T06:10:20;19.40;99.90
4052;DHT22;2040;50.924;11.604;2023-07-29T06:12:46;19.30;99.90
4052;DHT22;2040;50.924;11.604;2023-07-29T06:15:12;19.40;99.90
4052;DHT22;2040;50.924;11.604;2023-07-29T06:17:38;19.40;99.90
4052;DHT22;2040;50.924;11.604;2023-07-29T06:20:04;19.50;99.90
4052;DHT22;2040;50.924;11.604;2023-07-29T06:22:31;19.70;99.90
4052;DHT22;2040;50.924;11.604;2023-07-29T06:24:56;19.80;99.90
4052;DHT22;2040;50.924;11.604;2023-07-29T06:27:22;19.90;99.90
4052;DHT22;2040;50.924;11.604;2023-07-29T06:29:48;20.00;99.90
4052;DHT22;2040;50.924;11.604;2023-07-29T06:32:13;20.00;99.90
4052;DHT22;2040;50.924;11.604;2023-07-29T06:34:39;20.10;99.90
4052;DHT22;2040;50.924;11.604;2023-07-29T06:37:15;20.20;99.90
4052;DHT22;2040;50.924;11.604;2023-07-29T06:44:20;20.20;99.90
4052;DHT22;2040;50.924;11.604;2023-07-29T06:46:46;20.40;99.90
4052;DHT22;2040;50.924;11.604;2023-07-29T06:49:12;20.50;99.90
4052;DHT22;2040;50.924;11.604;2023-07-29T06:51:37;20.60;99.90
4052;DHT22;2040;50.924;11.604;2023-07-29T06:54:03;20.60;99.90
4052;DHT22;2040;50.924;11.604;2023-07-29T06:56:29;20.60;99.90
4052;DHT22;2040;50.924;11.604;2023-07-29T06:58:54;20.60;99.90
4052;DHT22;2040;50.924;11.604;2023-07-29T07:01:20;20.50;99.90
4052;DHT22;2040;50.924;11.604;2023-07-29T07:03:45;20.50;99.90
4052;DHT22;2040;50.924;11.604;2023-07-29T07:06:11;20.40;99.90
4052;DHT22;2040;50.924;11.604;2023-07-29T07:08:36;20.40;99.90
4052;DHT22;2040;50.924;11.604;2023-07-29T07:11:02;20.30;99.90
4052;DHT22;2040;50.924;11.604;2023-07-29T07:13:28;20.30;99.90
4052;DHT22;2040;50.924;11.604;2023-07-29T07:15:57;20.30;99.90
4052;DHT22;2040;50.924;11.604;2023-07-29T07:18:22;20.30;99.90
4052;DHT22;2040;50.924;11.604;2023-07-29T07:20:49;20.40;99.90
4052;DHT22;2040;50.924;11.604;2023-07-29T07:23:15;20.40;99.90
4052;DHT22;2040;50.924;11.604;2023-07-29T07:25:41;20.40;99.90
4052;DHT22;2040;50.924;11.604;2023-07-29T07:28:08;20.50;99.90
4052;DHT22;2040;50.924;11.604;2023-07-29T07:30:34;20.50;99.90
4052;DHT22;2040;50.924;11.604;2023-07-29T07:33:00;20.60;99.90
4052;DHT22;2040;50.924;11.604;2023-07-29T07:35:25;20.70;99.90
4052;DHT22;2040;50.924;11.604;2023-07-29T07:37:51;20.70;99.90
4052;DHT22;2040;50.924;11.604;2023-07-29T07:40:17;20.70;99.90
4052;DHT22;2040;50.924;11.604;2023-07-29T07:42:42;20.70;99.90
4052;DHT22;2040;50.924;11.604;2023-07-29T07:45:08;20.80;99.90
4052;DHT22;2040;50.924;11.604;2023-07-29T07:47:33;20.90;99.90
4052;DHT22;2040;50.924;11.604;2023-07-29T07:49:59;21.00;99.90
4052;DHT22;2040;50.924;11.604;2023-07-29T07:52:24;21.10;99.90
4052;DHT22;2040;50.924;11.604;2023-07-29T07:54:54;21.20;99.90
4052;DHT22;2040;50.924;11.604;2023-07-29T07:57:22;21.20;99.90
4052;DHT22;2040;50.924;11.604;2023-07-29T07:59:48;21.40;99.90
4052;DHT22;2040;50.924;11.604;2023-07-29T08:02:14;21.40;99.90
4052;DHT22;2040;50.924;11.604;2023-07-29T08:04:39;21.30;99.90
4052;DHT22;2040;50.924;11.604;2023-07-29T08:07:05;21.40;99.90
4052;DHT22;2040;50.924;11.604;2023-07-29T08:09:31;21.60;99.90
4052;DHT22;2040;50.924;11.604;2023-07-29T08:11:57;21.70;99.90
4052;DHT22;2040;50.924;11.604;2023-07-29T08:14:22;21.80;99.90
4052;DHT22;2040;50.924;11.604;2023-07-29T08:16:48;21.90;99.90
4052;DHT22;2040;50.924;11.604;2023-07-29T08:19:13;22.10;99.90
4052;DHT22;2040;50.924;11.604;2023-07-29T08:21:39;22.20;99.90
4052;DHT22;2040;50.924;11.604;2023-07-29T08:24:05;22.20;99.90
4052;DHT22;2040;50.924;11.604;2023-07-29T08:26:32;22.20;99.90
4052;DHT22;2040;50.924;11.604;2023-07-29T08:28:57;22.20;99.90
4052;DHT22;2040;50.924;11.604;2023-07-29T08:31:23;22.30;99.90
4052;DHT22;2040;50.924;11.604;2023-07-29T08:33:48;22.10;99.90
4052;DHT22;2040;50.924;11.604;2023-07-29T08:36:14;22.00;99.90
4052;DHT22;2040;50.924;11.604;2023-07-29T08:38:39;22.00;99.90
4052;DHT22;2040;50.924;11.604;2023-07-29T08:41:25;22.10;99.90
4052;DHT22;2040;50.924;11.604;2023-07-29T08:44:09;22.20;99.90
4052;DHT22;2040;50.924;11.604;2023-07-29T08:46:35;22.20;99.90
4052;DHT22;2040;50.924;11.604;2023-07-29T08:49:23;22.20;99.90
4052;DHT22;2040;50.924;11.604;2023-07-29T08:52:09;22.20;99.90
4052;DHT22;2040;50.924;11.604;2023-07-29T08:54:39;22.00;99.90
4052;DHT22;2040;50.924;11.604;2023-07-29T08:57:17;22.00;99.90
4052;DHT22;2040;50.924;11.604;2023-07-29T09:00:01;22.00;99.90
4052;DHT22;2040;50.924;11.604;2023-07-29T09:02:42;22.00;99.90
4052;DHT22;2040;50.924;11.604;2023-07-29T09:05:08;22.00;99.90
4052;DHT22;2040;50.924;11.604;2023-07-29T09:07:36;22.10;99.90
4052;DHT22;2040;50.924;11.604;2023-07-29T09:10:02;22.00;99.90
4052;DHT22;2040;50.924;11.604;2023-07-29T09:12:28;21.80;99.90
4052;DHT22;2040;50.924;11.604;2023-07-29T09:14:53;21.80;99.90
4052;DHT22;2040;50.924;11.604;2023-07-29T09:17:20;21.80;99.90
4052;DHT22;2040;50.924;11.604;2023-07-29T09:19:48;21.70;99.90
4052;DHT22;2040;50.924;11.604;2023-07-29T09:22:20;21.70;99.90
4052;DHT22;2040;50.924;11.604;2023-07-29T09:24:47;21.70;99.90
4052;DHT22;2040;50.924;11.604;2023-07-29T09:27:23;21.70;99.90
4052;DHT22;2040;50.924;11.604;2023-07-29T09:29:49;21.70;99.90
4052;DHT22;2040;50.924;11.604;2023-07-29T09:32:23;21.60;99.90
4052;DHT22;2040;50.924;11.604;2023-07-29T09:34:49;21.60;99.90
4052;DHT22;2040;50.924;11.604;2023-07-29T09:37:21;21.60;99.90
4052;DHT22;2040;50.924;11.604;2023-07-29T09:39:47;21.70;99.90
4052;DHT22;2040;50.924;11.604;2023-07-29T09:42:20;21.80;99.90
4052;DHT22;2040;50.924;11.604;2023-07-29T09:44:48;21.90;99.90
4052;DHT22;2040;50.924;11.604;2023-07-29T09:47:21;21.90;99.90
4052;DHT22;2040;50.924;11.604;2023-07-29T09:49:48;21.80;99.90
4052;DHT22;2040;50.924;11.604;2023-07-29T09:52:18;21.90;99.90
4052;DHT22;2040;50.924;11.604;2023-07-29T09:54:44;21.90;99.90
4052;DHT22;2040;50.924;11.604;2023-07-29T09:57:13;22.10;99.90
4052;DHT22;2040;50.924;11.604;2023-07-29T09:59:39;22.20;99.90
4052;DHT22;2040;50.924;11.604;2023-07-29T10:02:04;22.30;99.90
4052;DHT22;2040;50.924;11.604;2023-07-29T10:04:33;22.40;99.90
4052;DHT22;2040;50.924;11.604;2023-07-29T10:06:59;22.40;99.90
4052;DHT22;2040;50.924;11.604;2023-07-29T10:09:26;22.50;99.90
4052;DHT22;2040;50.924;11.604;2023-07-29T10:11:53;22.60;99.90
4052;DHT22;2040;50.924;11.604;2023-07-29T10:14:26;22.60;99.90
4052;DHT22;2040;50.924;11.604;2023-07-29T10:16:56;22.80;99.90
4052;DHT22;2040;50.924;11.604;2023-07-29T10:19:23;22.90;99.90
4052;DHT22;2040;50.924;11.604;2023-07-29T10:21:51;23.20;99.90
4052;DHT22;2040;50.924;11.604;2023-07-29T10:24:24;23.20;99.90
4052;DHT22;2040;50.924;11.604;2023-07-29T10:27:01;23.30;99.90
4052;DHT22;2040;50.924;11.604;2023-07-29T10:29:32;23.10;99.90
4052;DHT22;2040;50.924;11.604;2023-07-29T10:32:03;22.80;99.90
4052;DHT22;2040;50.924;11.604;2023-07-29T10:34:40;22.40;99.90
4052;DHT22;2040;50.924;11.604;2023-07-29T10:37:06;22.30;99.90
4052;DHT22;2040;50.924;11.604;2023-07-29T10:39:39;22.20;99.90
4052;DHT22;2040;50.924;11.604;2023-07-29T10:42:06;22.10;99.90
4052;DHT22;2040;50.924;11.604;2023-07-29T10:50:20;21.60;99.90
4052;DHT22;2040;50.924;11.604;2023-07-29T10:52:52;21.40;99.90
4052;DHT22;2040;50.924;11.604;2023-07-29T10:58:15;21.60;99.90
4052;DHT22;2040;50.924;11.604;2023-07-29T11:00:49;21.80;99.90
4052;DHT22;2040;50.924;11.604;2023-07-29T11:03:17;21.70;99.90
4052;DHT22;2040;50.924;11.604;2023-07-29T11:05:56;21.70;99.90
4052;DHT22;2040;50.924;11.604;2023-07-29T11:08:33;21.90;99.90
4052;DHT22;2040;50.924;11.604;2023-07-29T11:13:39;23.00;99.90
4052;DHT22;2040;50.924;11.604;2023-07-29T11:16:19;23.50;99.90
4052;DHT22;2040;50.924;11.604;2023-07-29T11:18:46;23.90;99.90
4052;DHT22;2040;50.924;11.604;2023-07-29T11:21:16;24.30;99.90
4052;DHT22;2040;50.924;11.604;2023-07-29T11:23:52;24.50;99.90
4052;DHT22;2040;50.924;11.604;2023-07-29T11:26:24;24.10;99.90
4052;DHT22;2040;50.924;11.604;2023-07-29T11:28:56;23.70;99.90
4052;DHT22;2040;50.924;11.604;2023-07-29T11:31:39;23.80;99.90
4052;DHT22;2040;50.924;11.604;2023-07-29T11:34:07;23.70;99.90
4052;DHT22;2040;50.924;11.604;2023-07-29T11:36:38;23.60;99.90
4052;DHT22;2040;50.924;11.604;2023-07-29T11:39:13;23.80;99.90
4052;DHT22;2040;50.924;11.604;2023-07-29T11:41:42;23.90;99.90
4052;DHT22;2040;50.924;11.604;2023-07-29T11:44:16;24.00;99.90
4052;DHT22;2040;50.924;11.604;2023-07-29T11:46:44;24.10;99.90
4052;DHT22;2040;50.924;11.604;2023-07-29T11:49:20;24.00;99.90
4052;DHT22;2040;50.924;11.604;2023-07-29T11:51:46;23.90;99.90
4052;DHT22;2040;50.924;11.604;2023-07-29T11:54:12;23.80;99.90
4052;DHT22;2040;50.924;11.604;2023-07-29T11:56:38;23.50;99.90
4052;DHT22;2040;50.924;11.604;2023-07-29T11:59:33;23.40;99.90
4052;DHT22;2040;50.924;11.604;2023-07-29T12:02:06;23.50;99.90
4052;DHT22;2040;50.924;11.604;2023-07-29T12:04:50;23.80;99.90
4052;DHT22;2040;50.924;11.604;2023-07-29T12:07:28;23.90;99.90
4052;DHT22;2040;50.924;11.604;2023-07-29T12:09:57;23.70;99.90
4052;DHT22;2040;50.924;11.604;2023-07-29T12:12:48;23.50;99.90
4052;DHT22;2040;50.924;11.604;2023-07-29T12:15:40;23.40;99.90
4052;DHT22;2040;50.924;11.604;2023-07-29T12:18:12;23.40;99.90
4052;DHT22;2040;50.924;11.604;2023-07-29T12:21:01;23.90;99.90
4052;DHT22;2040;50.924;11.604;2023-07-29T12:24:34;24.80;99.90
4052;DHT22;2040;50.924;11.604;2023-07-29T12:31:22;24.80;99.90
4052;DHT22;2040;50.924;11.604;2023-07-29T12:37:35;25.40;99.90
4052;DHT22;2040;50.924;11.604;2023-07-29T12:40:02;25.90;99.90
4052;DHT22;2040;50.924;11.604;2023-07-29T12:42:30;26.30;99.90
4052;DHT22;2040;50.924;11.604;2023-07-29T12:44:56;26.70;99.90
4052;DHT22;2040;50.924;11.604;2023-07-29T12:47:21;26.50;99.90
4052;DHT22;2040;50.924;11.604;2023-07-29T12:49:47;26.40;99.90
4052;DHT22;2040;50.924;11.604;2023-07-29T12:52:16;26.90;99.90
4052;DHT22;2040;50.924;11.604;2023-07-29T12:54:42;27.40;99.90
4052;DHT22;2040;50.924;11.604;2023-07-29T12:57:09;27.80;99.90
4052;DHT22;2040;50.924;11.604;2023-07-29T12:59:35;27.50;99.90
4052;DHT22;2040;50.924;11.604;2023-07-29T13:02:01;27.00;99.90
4052;DHT22;2040;50.924;11.604;2023-07-29T13:04:29;26.50;99.90
4052;DHT22;2040;50.924;11.604;2023-07-29T13:06:58;26.10;99.90
4052;DHT22;2040;50.924;11.604;2023-07-29T13:09:27;25.90;99.90
4052;DHT22;2040;50.924;11.604;2023-07-29T13:12:02;25.80;99.90
4052;DHT22;2040;50.924;11.604;2023-07-29T13:14:31;26.00;99.90
4052;DHT22;2040;50.924;11.604;2023-07-29T13:16:57;26.60;99.90
4052;DHT22;2040;50.924;11.604;2023-07-29T13:19:22;26.80;99.90
4052;DHT22;2040;50.924;11.604;2023-07-29T13:21:48;26.30;99.90
4052;DHT22;2040;50.924;11.604;2023-07-29T13:24:14;26.00;99.90
4052;DHT22;2040;50.924;11.604;2023-07-29T13:26:40;25.60;99.90
4052;DHT22;2040;50.924;11.604;2023-07-29T13:29:05;25.30;99.90
4052;DHT22;2040;50.924;11.604;2023-07-29T13:31:31;25.40;99.90
4052;DHT22;2040;50.924;11.604;2023-07-29T13:33:56;25.70;99.90
4052;DHT22;2040;50.924;11.604;2023-07-29T13:36:22;26.20;99.90
4052;DHT22;2040;50.924;11.604;2023-07-29T13:38:48;26.40;99.90
4052;DHT22;2040;50.924;11.604;2023-07-29T13:41:23;26.30;99.90
4052;DHT22;2040;50.924;11.604;2023-07-29T13:43:49;26.20;99.90
4052;DHT22;2040;50.924;11.604;2023-07-29T13:46:14;25.90;99.90
4052;DHT22;2040;50.924;11.604;2023-07-29T13:48:40;25.70;99.90
4052;DHT22;2040;50.924;11.604;2023-07-29T13:51:06;25.50;99.90
4052;DHT22;2040;50.924;11.604;2023-07-29T13:53:31;25.50;99.90
4052;DHT22;2040;50.924;11.604;2023-07-29T13:55:59;25.60;99.90
4052;DHT22;2040;50.924;11.604;2023-07-29T13:58:46;25.50;99.90
4052;DHT22;2040;50.924;11.604;2023-07-29T14:01:11;25.10;99.90
4052;DHT22;2040;50.924;11.604;2023-07-29T14:03:39;24.80;99.90
4052;DHT22;2040;50.924;11.604;2023-07-29T14:06:05;24.60;99.90
4052;DHT22;2040;50.924;11.604;2023-07-29T14:08:30;24.50;99.90
4052;DHT22;2040;50.924;11.604;2023-07-29T14:10:56;24.30;99.90
4052;DHT22;2040;50.924;11.604;2023-07-29T14:13:22;24.20;99.90
4052;DHT22;2040;50.924;11.604;2023-07-29T14:15:47;24.10;99.90
4052;DHT22;2040;50.924;11.604;2023-07-29T14:18:15;23.90;99.90
4052;DHT22;2040;50.924;11.604;2023-07-29T14:20:41;23.80;99.90
4052;DHT22;2040;50.924;11.604;2023-07-29T14:23:06;23.70;99.90
4052;DHT22;2040;50.924;11.604;2023-07-29T14:25:32;23.60;99.90
4052;DHT22;2040;50.924;11.604;2023-07-29T14:27:58;23.50;99.90
4052;DHT22;2040;50.924;11.604;2023-07-29T14:30:23;23.40;99.90
4052;DHT22;2040;50.924;11.604;2023-07-29T14:32:49;23.30;99.90
4052;DHT22;2040;50.924;11.604;2023-07-29T14:35:15;23.20;99.90
4052;DHT22;2040;50.924;11.604;2023-07-29T14:37:40;23.00;99.90
4052;DHT22;2040;50.924;11.604;2023-07-29T14:40:06;22.70;99.90
4052;DHT22;2040;50.924;11.604;2023-07-29T14:42:32;22.30;99.90
4052;DHT22;2040;50.924;11.604;2023-07-29T14:44:58;22.10;99.90
4052;DHT22;2040;50.924;11.604;2023-07-29T14:47:23;21.70;99.90
4052;DHT22;2040;50.924;11.604;2023-07-29T14:49:49;20.90;99.90
4052;DHT22;2040;50.924;11.604;2023-07-29T14:52:14;20.30;99.90
4052;DHT22;2040;50.924;11.604;2023-07-29T14:54:40;19.90;99.90
4052;DHT22;2040;50.924;11.604;2023-07-29T14:57:06;19.60;99.90
4052;DHT22;2040;50.924;11.604;2023-07-29T14:59:32;19.30;99.90
4052;DHT22;2040;50.924;11.604;2023-07-29T15:01:58;19.10;99.90
4052;DHT22;2040;50.924;11.604;2023-07-29T15:04:24;18.90;99.90
4052;DHT22;2040;50.924;11.604;2023-07-29T15:06:50;18.60;99.90
4052;DHT22;2040;50.924;11.604;2023-07-29T15:09:15;18.30;99.90
4052;DHT22;2040;50.924;11.604;2023-07-29T15:11:41;18.30;99.90
4052;DHT22;2040;50.924;11.604;2023-07-29T15:14:07;18.40;99.90
4052;DHT22;2040;50.924;11.604;2023-07-29T15:16:32;18.40;99.90
4052;DHT22;2040;50.924;11.604;2023-07-29T15:19:02;18.50;99.90
4052;DHT22;2040;50.924;11.604;2023-07-29T15:21:29;18.80;99.90
4052;DHT22;2040;50.924;11.604;2023-07-29T15:23:55;19.00;99.90
4052;DHT22;2040;50.924;11.604;2023-07-29T15:26:20;19.20;99.90
4052;DHT22;2040;50.924;11.604;2023-07-29T15:28:46;19.50;99.90
4052;DHT22;2040;50.924;11.604;2023-07-29T15:31:13;19.50;99.90
4052;DHT22;2040;50.924;11.604;2023-07-29T15:33:38;19.40;99.90
4052;DHT22;2040;50.924;11.604;2023-07-29T15:36:04;19.60;99.90
4052;DHT22;2040;50.924;11.604;2023-07-29T15:38:30;19.50;99.90
4052;DHT22;2040;50.924;11.604;2023-07-29T15:40:56;19.50;99.90
4052;DHT22;2040;50.924;11.604;2023-07-29T15:43:22;19.50;99.90
4052;DHT22;2040;50.924;11.604;2023-07-29T15:45:55;19.60;99.90
4052;DHT22;2040;50.924;11.604;2023-07-29T15:48:20;19.60;99.90
4052;DHT22;2040;50.924;11.604;2023-07-29T15:50:46;19.70;99.90
4052;DHT22;2040;50.924;11.604;2023-07-29T15:53:11;19.50;99.90
4052;DHT22;2040;50.924;11.604;2023-07-29T15:55:37;19.60;99.90
4052;DHT22;2040;50.924;11.604;2023-07-29T15:58:03;19.70;99.90
4052;DHT22;2040;50.924;11.604;2023-07-29T16:00:28;20.10;99.90
4052;DHT22;2040;50.924;11.604;2023-07-29T16:02:54;20.60;99.90
4052;DHT22;2040;50.924;11.604;2023-07-29T16:05:25;20.70;99.90
4052;DHT22;2040;50.924;11.604;2023-07-29T16:07:51;21.10;99.90
4052;DHT22;2040;50.924;11.604;2023-07-29T16:10:18;21.30;99.90
4052;DHT22;2040;50.924;11.604;2023-07-29T16:12:44;21.40;99.90
4052;DHT22;2040;50.924;11.604;2023-07-29T16:15:12;21.70;99.90
4052;DHT22;2040;50.924;11.604;2023-07-29T16:17:38;21.70;99.90
4052;DHT22;2040;50.924;11.604;2023-07-29T16:20:07;21.40;99.90
4052;DHT22;2040;50.924;11.604;2023-07-29T16:22:35;21.40;99.90
4052;DHT22;2040;50.924;11.604;2023-07-29T16:25:02;21.60;99.90
4052;DHT22;2040;50.924;11.604;2023-07-29T16:27:32;21.70;99.90
4052;DHT22;2040;50.924;11.604;2023-07-29T16:30:08;21.50;99.90
4052;DHT22;2040;50.924;11.604;2023-07-29T16:32:41;21.20;99.90